createdAt,value
2017-09-03T00:00:15.603Z,87.60
2017-09-03T00:02:43.183Z,88.50
2017-09-03T00:05:10.671Z,88.70
2017-09-03T00:07:38.142Z,85.90
2017-09-03T00:10:05.613Z,87.40
2017-09-03T00:12:33.097Z,89.40
2017-09-03T00:15:01.342Z,89.30
2017-09-03T00:17:28.815Z,89.10
2017-09-03T00:19:56.295Z,88.80
2017-09-03T00:22:23.780Z,90.40
2017-09-03T00:24:51.255Z,90.10
2017-09-03T00:27:18.729Z,90.80
2017-09-03T00:29:46.202Z,91.20
2017-09-03T00:32:13.711Z,90.50
2017-09-03T00:34:41.194Z,90.70
2017-09-03T00:37:08.681Z,90.40
2017-09-03T00:39:36.158Z,90.20
2017-09-03T00:42:03.647Z,91.50
2017-09-03T00:44:31.127Z,90.90
2017-09-03T00:46:58.603Z,91.30
2017-09-03T00:49:26.090Z,92.40
2017-09-03T00:51:53.576Z,92.20
2017-09-03T00:54:21.057Z,92.40
2017-09-03T00:56:48.543Z,93.20
2017-09-03T00:59:16.026Z,92.90
2017-09-03T01:01:43.511Z,93.60
2017-09-03T01:04:10.999Z,93.30
2017-09-03T01:06:38.487Z,94.20
2017-09-03T01:09:05.966Z,93.70
2017-09-03T01:11:33.456Z,94.40
2017-09-03T01:14:00.935Z,93.90
2017-09-03T01:16:28.415Z,94.40
2017-09-03T01:18:55.904Z,95.30
2017-09-03T01:21:23.447Z,95.50
2017-09-03T01:23:50.917Z,95.10
2017-09-03T01:26:18.404Z,95.10
2017-09-03T01:28:45.886Z,95.40
2017-09-03T01:31:13.379Z,95.00
2017-09-03T01:33:40.863Z,95.20
2017-09-03T01:36:08.352Z,95.70
2017-09-03T01:38:35.835Z,96.50
2017-09-03T01:41:03.308Z,95.60
2017-09-03T01:43:30.799Z,96.00
2017-09-03T01:45:58.280Z,96.30
2017-09-03T01:48:25.759Z,96.10
2017-09-03T01:50:53.238Z,96.60
2017-09-03T01:53:20.719Z,96.30
2017-09-03T01:55:48.207Z,95.60
2017-09-03T01:58:15.695Z,96.70
2017-09-03T02:00:43.162Z,96.40
2017-09-03T02:03:10.638Z,96.70
2017-09-03T02:05:38.111Z,96.80
2017-09-03T02:08:05.581Z,96.40
2017-09-03T02:10:33.059Z,96.20
2017-09-03T02:13:00.548Z,94.60
2017-09-03T02:15:28.017Z,95.90
2017-09-03T02:17:55.493Z,97.10
2017-09-03T02:20:22.992Z,95.30
2017-09-03T02:22:50.469Z,94.40
2017-09-03T02:25:17.938Z,90.00
2017-09-03T02:27:45.410Z,90.20
2017-09-03T02:30:12.885Z,89.80
2017-09-03T02:32:40.366Z,90.50
2017-09-03T02:35:07.856Z,91.30
2017-09-03T02:37:35.466Z,93.10
2017-09-03T02:40:02.954Z,94.10
2017-09-03T02:42:30.430Z,94.50
2017-09-03T02:44:57.914Z,91.50
2017-09-03T02:47:25.403Z,92.40
2017-09-03T02:49:52.883Z,91.00
2017-09-03T02:52:21.129Z,88.70
2017-09-03T02:54:48.611Z,88.50
2017-09-03T02:57:16.094Z,91.90
2017-09-03T02:59:43.583Z,92.30
2017-09-03T03:02:11.062Z,90.60
2017-09-03T03:04:38.542Z,90.40
2017-09-03T03:07:06.040Z,89.00
2017-09-03T03:09:33.513Z,91.60
2017-09-03T03:12:00.994Z,91.50
2017-09-03T03:14:28.487Z,91.90
2017-09-03T03:16:56.063Z,93.00
2017-09-03T03:19:23.540Z,92.60
2017-09-03T03:21:51.018Z,91.20
2017-09-03T03:24:18.507Z,92.10
2017-09-03T03:26:45.991Z,90.60
2017-09-03T03:29:13.461Z,91.50
2017-09-03T03:31:40.945Z,89.60
2017-09-03T03:34:08.443Z,90.40
2017-09-03T03:36:35.922Z,90.60
2017-09-03T03:39:03.403Z,91.90
2017-09-03T03:41:30.873Z,90.90
2017-09-03T03:43:58.354Z,91.00
2017-09-03T03:46:25.834Z,92.10
2017-09-03T03:48:53.310Z,92.30
2017-09-03T03:51:20.786Z,92.40
2017-09-03T03:53:48.263Z,92.20
2017-09-03T03:56:15.739Z,91.20
2017-09-03T03:58:43.209Z,91.70
2017-09-03T04:01:10.691Z,92.20
2017-09-03T04:03:38.948Z,92.20
2017-09-03T04:06:06.431Z,92.20
2017-09-03T04:08:33.917Z,91.90
2017-09-03T04:11:01.410Z,92.50
2017-09-03T04:13:28.904Z,91.00
2017-09-03T04:15:56.382Z,90.90
2017-09-03T04:18:23.862Z,91.30
2017-09-03T04:20:51.337Z,92.00
2017-09-03T04:23:18.819Z,90.10
2017-09-03T04:25:46.302Z,90.90
2017-09-03T04:28:13.786Z,91.90
2017-09-03T04:30:41.272Z,91.50
2017-09-03T04:33:08.754Z,91.00
2017-09-03T04:35:36.225Z,91.50
2017-09-03T04:40:45.843Z,90.80
2017-09-03T04:43:13.328Z,90.00
2017-09-03T04:45:40.806Z,90.00
2017-09-03T04:48:08.288Z,90.40
2017-09-03T04:50:35.766Z,90.70
2017-09-03T04:53:03.324Z,91.60
2017-09-03T04:55:30.812Z,91.10
2017-09-03T04:57:58.292Z,91.70
2017-09-03T05:00:25.787Z,91.10
2017-09-03T05:02:53.262Z,91.60
2017-09-03T05:05:20.747Z,90.30
2017-09-03T05:07:48.226Z,91.20
2017-09-03T05:10:15.706Z,91.40
2017-09-03T05:12:43.188Z,90.80
2017-09-03T05:15:10.657Z,91.40
2017-09-03T05:17:38.144Z,91.70
2017-09-03T05:20:05.628Z,91.50
2017-09-03T05:22:33.128Z,91.30
2017-09-03T05:25:01.448Z,91.70
2017-09-03T05:27:28.971Z,91.50
2017-09-03T05:29:56.454Z,91.70
2017-09-03T05:32:23.943Z,92.40
2017-09-03T05:34:51.426Z,92.30
2017-09-03T05:37:18.903Z,92.10
2017-09-03T05:39:46.392Z,92.00
2017-09-03T05:42:13.879Z,91.60
2017-09-03T05:44:41.363Z,91.40
2017-09-03T05:47:08.847Z,91.50
2017-09-03T05:49:36.340Z,91.00
2017-09-03T05:52:03.822Z,91.40
2017-09-03T05:54:31.289Z,91.00
2017-09-03T05:56:58.775Z,90.00
2017-09-03T05:59:26.267Z,90.50
2017-09-03T06:01:53.750Z,89.70
2017-09-03T06:04:21.233Z,88.60
2017-09-03T06:06:48.709Z,88.00
2017-09-03T06:09:16.189Z,87.20
2017-09-03T06:11:43.662Z,86.90
2017-09-03T06:14:11.153Z,83.90
2017-09-03T06:16:39.402Z,83.70
2017-09-03T06:19:06.904Z,83.60
2017-09-03T06:21:34.379Z,82.70
2017-09-03T06:24:01.867Z,83.30
2017-09-03T06:26:29.360Z,82.80
2017-09-03T06:28:56.856Z,79.90
2017-09-03T06:31:24.350Z,77.10
2017-09-03T06:33:51.836Z,77.40
2017-09-03T06:36:19.335Z,77.60
2017-09-03T06:38:46.826Z,78.30
2017-09-03T06:41:14.297Z,76.30
2017-09-03T06:43:41.785Z,76.40
2017-09-03T06:46:09.259Z,76.60
2017-09-03T06:48:36.745Z,75.00
2017-09-03T06:51:04.227Z,77.50
2017-09-03T06:53:31.715Z,77.00
2017-09-03T06:55:59.190Z,77.10
2017-09-03T06:58:26.667Z,76.60
2017-09-03T07:00:54.150Z,75.50
2017-09-03T07:03:21.621Z,75.30
2017-09-03T07:05:49.117Z,74.90
2017-09-03T07:08:16.609Z,75.80
2017-09-03T07:10:44.095Z,78.50
2017-09-03T07:13:11.591Z,75.70
2017-09-03T07:15:39.068Z,76.50
2017-09-03T07:18:06.550Z,72.50
2017-09-03T07:20:34.043Z,73.60
2017-09-03T07:23:01.541Z,76.00
2017-09-03T07:25:29.031Z,76.20
2017-09-03T07:27:56.510Z,74.80
2017-09-03T07:30:24.003Z,75.90
2017-09-03T07:32:51.504Z,72.70
2017-09-03T07:35:19.018Z,71.90
2017-09-03T07:37:46.528Z,73.80
2017-09-03T07:40:14.062Z,74.50
2017-09-03T07:42:41.539Z,74.70
2017-09-03T07:45:09.026Z,73.80
2017-09-03T07:47:36.515Z,74.60
2017-09-03T07:50:04.009Z,69.60
2017-09-03T07:52:31.503Z,72.50
2017-09-03T07:54:58.999Z,68.60
2017-09-03T07:57:26.490Z,70.50
2017-09-03T07:59:53.985Z,68.50
2017-09-03T08:02:21.467Z,68.60
2017-09-03T08:04:48.956Z,71.20
2017-09-03T08:07:16.447Z,71.70
2017-09-03T08:09:43.923Z,68.10
2017-09-03T08:12:11.403Z,67.30
2017-09-03T08:14:38.891Z,69.90
2017-09-03T08:17:06.382Z,74.60
2017-09-03T08:19:33.859Z,73.20
2017-09-03T08:22:01.329Z,71.10
2017-09-03T08:24:28.816Z,67.50
2017-09-03T08:26:56.303Z,70.00
2017-09-03T08:29:23.776Z,70.30
2017-09-03T08:31:51.256Z,70.40
2017-09-03T08:34:18.729Z,68.20
2017-09-03T08:36:46.196Z,67.10
2017-09-03T08:39:13.681Z,68.70
2017-09-03T08:41:41.174Z,66.60
2017-09-03T08:44:08.659Z,64.70
2017-09-03T08:46:36.140Z,64.70
2017-09-03T08:49:03.628Z,68.70
2017-09-03T08:51:31.115Z,64.10
2017-09-03T08:53:58.596Z,65.00
2017-09-03T08:56:26.070Z,63.20
2017-09-03T08:58:53.550Z,59.40
2017-09-03T09:01:21.034Z,59.10
2017-09-03T09:03:48.505Z,55.20
2017-09-03T09:06:15.986Z,57.70
2017-09-03T09:08:43.462Z,59.60
2017-09-03T09:11:10.925Z,61.30
2017-09-03T09:13:38.411Z,59.10
2017-09-03T09:16:05.895Z,59.00
2017-09-03T09:18:33.378Z,57.30
2017-09-03T09:21:00.859Z,58.70
2017-09-03T09:23:28.338Z,60.70
2017-09-03T09:25:55.813Z,57.80
2017-09-03T09:28:23.300Z,56.50
2017-09-03T09:30:50.777Z,57.50
2017-09-03T09:33:18.253Z,57.00
2017-09-03T09:35:45.730Z,57.70
2017-09-03T09:38:13.813Z,55.60
2017-09-03T09:40:42.204Z,55.90
2017-09-03T09:43:10.322Z,52.70
2017-09-03T09:45:38.417Z,56.60
2017-09-03T09:48:06.016Z,53.40
2017-09-03T09:50:34.187Z,54.10
2017-09-03T09:53:02.114Z,55.10
2017-09-03T09:55:29.889Z,55.60
2017-09-03T09:57:58.317Z,52.40
2017-09-03T10:00:26.024Z,55.60
2017-09-03T10:02:53.865Z,57.00
2017-09-03T10:05:21.649Z,56.20
2017-09-03T10:07:49.795Z,52.10
2017-09-03T10:10:18.271Z,51.90
2017-09-03T10:12:46.416Z,55.00
2017-09-03T10:15:14.488Z,55.50
2017-09-03T10:17:42.154Z,51.00
2017-09-03T10:20:10.278Z,52.40
2017-09-03T10:22:38.717Z,51.20
2017-09-03T10:25:07.702Z,50.70
2017-09-03T10:27:36.397Z,49.40
2017-09-03T10:30:04.828Z,50.10
2017-09-03T10:32:33.081Z,50.80
2017-09-03T10:35:01.244Z,50.80
2017-09-03T10:37:29.086Z,50.00
2017-09-03T10:39:57.160Z,51.40
2017-09-03T10:42:25.468Z,51.40
2017-09-03T10:44:53.479Z,49.40
2017-09-03T10:47:21.178Z,51.60
2017-09-03T10:49:49.059Z,51.60
2017-09-03T10:52:18.305Z,51.60
2017-09-03T10:54:48.008Z,49.60
2017-09-03T10:57:16.027Z,51.00
2017-09-03T10:59:44.402Z,53.00
2017-09-03T11:02:12.550Z,50.80
2017-09-03T11:04:40.658Z,53.90
2017-09-03T11:07:08.761Z,51.00
2017-09-03T11:09:36.676Z,49.20
2017-09-03T11:12:04.791Z,52.00
2017-09-03T11:14:33.007Z,52.00
2017-09-03T11:17:01.055Z,50.50
2017-09-03T11:19:30.018Z,47.90
2017-09-03T11:21:58.193Z,51.70
2017-09-03T11:24:26.398Z,52.00
2017-09-03T11:26:54.223Z,51.50
2017-09-03T11:29:22.813Z,51.20
2017-09-03T11:31:50.829Z,47.50
2017-09-03T11:34:18.601Z,48.70
2017-09-03T11:36:46.451Z,47.10
2017-09-03T11:39:14.222Z,49.90
2017-09-03T11:41:42.068Z,49.20
2017-09-03T11:44:10.646Z,44.50
2017-09-03T11:46:39.219Z,47.30
2017-09-03T11:49:07.332Z,46.90
2017-09-03T11:51:34.817Z,48.80
2017-09-03T11:54:02.303Z,46.50
2017-09-03T11:56:29.797Z,48.20
2017-09-03T11:58:57.332Z,45.80
2017-09-03T12:01:24.809Z,48.50
2017-09-03T12:03:52.304Z,44.20
2017-09-03T12:06:19.806Z,45.40
2017-09-03T12:08:47.285Z,47.70
2017-09-03T12:11:14.782Z,45.80
2017-09-03T12:13:42.280Z,47.00
2017-09-03T12:16:09.771Z,45.50
2017-09-03T12:18:37.279Z,46.00
2017-09-03T12:21:04.771Z,46.70
2017-09-03T12:23:32.246Z,45.60
2017-09-03T12:25:59.743Z,47.40
2017-09-03T12:28:27.236Z,45.10
2017-09-03T12:30:54.724Z,46.10
2017-09-03T12:33:22.217Z,46.20
2017-09-03T12:35:49.688Z,45.40
2017-09-03T12:38:17.183Z,46.60
2017-09-03T12:40:44.757Z,46.80
2017-09-03T12:43:12.236Z,46.00
2017-09-03T12:45:39.727Z,46.10
2017-09-03T12:48:07.243Z,46.40
2017-09-03T12:50:34.727Z,45.90
2017-09-03T12:53:02.214Z,44.20
2017-09-03T12:55:29.696Z,48.00
2017-09-03T12:57:57.202Z,45.50
2017-09-03T13:00:24.683Z,45.00
2017-09-03T13:02:52.163Z,44.30
2017-09-03T13:05:19.726Z,42.20
2017-09-03T13:07:47.210Z,46.40
2017-09-03T13:10:14.685Z,40.90
2017-09-03T13:12:42.174Z,42.40
2017-09-03T13:15:09.674Z,46.20
2017-09-03T13:17:37.189Z,44.60
2017-09-03T13:20:04.674Z,44.60
2017-09-03T13:22:32.166Z,45.10
2017-09-03T13:24:59.653Z,44.30
2017-09-03T13:27:27.139Z,46.60
2017-09-03T13:29:54.629Z,45.20
2017-09-03T13:32:22.119Z,41.00
2017-09-03T13:34:49.604Z,40.40
2017-09-03T13:37:17.088Z,41.60
2017-09-03T13:39:44.579Z,44.60
2017-09-03T13:42:12.055Z,43.00
2017-09-03T13:44:39.550Z,41.80
2017-09-03T13:47:07.034Z,41.30
2017-09-03T13:49:34.510Z,43.30
2017-09-03T13:52:02.010Z,40.30
2017-09-03T13:54:29.499Z,36.50
2017-09-03T13:56:56.995Z,38.70
2017-09-03T13:59:24.481Z,41.40
2017-09-03T14:01:51.964Z,39.80
2017-09-03T14:04:19.447Z,39.30
2017-09-03T14:06:46.935Z,39.40
2017-09-03T14:09:14.445Z,39.20
2017-09-03T14:11:42.024Z,38.50
2017-09-03T14:14:09.520Z,40.30
2017-09-03T14:16:37.008Z,41.40
2017-09-03T14:19:04.507Z,40.10
2017-09-03T14:21:31.977Z,41.50
2017-09-03T14:23:59.452Z,39.90
2017-09-03T14:26:26.926Z,38.70
2017-09-03T14:28:54.406Z,40.80
2017-09-03T14:31:21.903Z,41.30
2017-09-03T14:33:49.382Z,41.30
2017-09-03T14:36:16.866Z,38.70
2017-09-03T14:38:44.363Z,37.10
2017-09-03T14:41:11.846Z,37.40
2017-09-03T14:43:39.343Z,40.30
2017-09-03T14:46:06.816Z,41.10
2017-09-03T14:48:34.303Z,40.90
2017-09-03T14:51:01.787Z,39.00
2017-09-03T14:53:29.279Z,37.50
2017-09-03T14:55:56.766Z,39.80
2017-09-03T14:58:24.250Z,40.80
2017-09-03T15:00:51.721Z,37.90
2017-09-03T15:03:19.206Z,39.80
2017-09-03T15:05:46.680Z,37.70
2017-09-03T15:08:14.157Z,36.70
2017-09-03T15:10:41.629Z,36.60
2017-09-03T15:13:09.127Z,35.20
2017-09-03T15:15:36.609Z,39.20
2017-09-03T15:18:04.140Z,36.80
2017-09-03T15:20:31.634Z,35.40
2017-09-03T15:22:59.115Z,39.30
2017-09-03T15:25:26.598Z,38.70
2017-09-03T15:27:54.194Z,38.60
2017-09-03T15:30:21.678Z,37.90
2017-09-03T15:32:49.162Z,35.50
2017-09-03T15:35:16.653Z,34.70
2017-09-03T15:37:44.147Z,36.80
2017-09-03T15:40:11.639Z,36.90
2017-09-03T15:42:39.134Z,37.00
2017-09-03T15:45:06.621Z,36.10
2017-09-03T15:47:34.107Z,38.00
2017-09-03T15:50:01.603Z,35.00
2017-09-03T15:52:29.098Z,34.60
2017-09-03T15:54:56.598Z,34.80
2017-09-03T15:57:24.098Z,35.30
2017-09-03T15:59:51.580Z,34.90
2017-09-03T16:02:19.075Z,35.70
2017-09-03T16:04:46.571Z,36.50
2017-09-03T16:07:14.159Z,35.80
2017-09-03T16:09:41.654Z,34.50
2017-09-03T16:12:09.152Z,37.70
2017-09-03T16:14:36.646Z,34.00
2017-09-03T16:17:04.138Z,35.10
2017-09-03T16:19:31.635Z,32.50
2017-09-03T16:21:59.117Z,34.40
2017-09-03T16:24:26.618Z,34.00
2017-09-03T16:26:54.102Z,34.30
2017-09-03T16:29:21.593Z,33.30
2017-09-03T16:31:49.083Z,33.90
2017-09-03T16:34:16.571Z,33.30
2017-09-03T16:36:44.065Z,36.30
2017-09-03T16:39:12.319Z,33.60
2017-09-03T16:41:39.836Z,33.40
2017-09-03T16:44:07.340Z,34.40
2017-09-03T16:46:34.857Z,34.40
2017-09-03T16:49:02.369Z,33.60
2017-09-03T16:51:29.874Z,33.90
2017-09-03T16:53:57.361Z,35.20
2017-09-03T16:56:24.856Z,36.60
2017-09-03T16:58:52.338Z,36.60
2017-09-03T17:01:19.826Z,35.10
2017-09-03T17:03:47.334Z,35.90
2017-09-03T17:06:14.996Z,35.90
2017-09-03T17:08:48.022Z,35.30
2017-09-03T17:11:16.148Z,35.10
2017-09-03T17:13:44.462Z,36.20
2017-09-03T17:16:12.035Z,36.10
2017-09-03T17:18:41.244Z,36.20
2017-09-03T17:21:08.859Z,37.40
2017-09-03T17:23:36.337Z,37.60
2017-09-03T17:26:05.727Z,37.70
2017-09-03T17:28:35.036Z,38.00
2017-09-03T17:31:05.087Z,37.60
2017-09-03T17:33:32.958Z,38.60
2017-09-03T17:36:15.872Z,37.90
2017-09-03T17:38:46.007Z,37.40
2017-09-03T17:44:16.512Z,39.00
2017-09-03T17:46:55.070Z,39.80
2017-09-03T17:49:27.059Z,39.80
2017-09-03T17:51:55.912Z,39.60
2017-09-03T17:54:24.030Z,39.50
2017-09-03T17:56:52.792Z,40.10
2017-09-03T17:59:22.409Z,40.20
2017-09-03T18:01:50.533Z,40.10
2017-09-03T18:04:19.794Z,40.00
2017-09-03T18:06:50.531Z,39.90
2017-09-03T18:09:19.563Z,38.00
2017-09-03T18:11:49.629Z,40.00
2017-09-03T18:14:17.349Z,40.80
2017-09-03T18:16:45.498Z,39.80
2017-09-03T18:19:13.558Z,40.30
2017-09-03T18:21:41.038Z,39.90
2017-09-03T18:24:08.526Z,39.90
2017-09-03T18:26:36.033Z,39.10
2017-09-03T18:29:04.346Z,38.30
2017-09-03T18:31:33.730Z,38.30
2017-09-03T18:34:01.278Z,39.40
2017-09-03T18:36:38.687Z,39.90
2017-09-03T18:39:12.211Z,40.70
2017-09-03T18:41:39.713Z,39.50
2017-09-03T18:44:27.908Z,39.70
2017-09-03T18:46:55.471Z,40.60
2017-09-03T18:49:22.954Z,41.30
2017-09-03T18:51:50.595Z,40.90
2017-09-03T18:54:18.094Z,40.30
2017-09-03T18:56:45.589Z,42.00
2017-09-03T18:59:13.569Z,41.10
2017-09-03T19:01:41.854Z,40.20
2017-09-03T19:04:09.561Z,40.10
2017-09-03T19:06:39.526Z,39.90
2017-09-03T19:09:07.157Z,39.90
2017-09-03T19:11:34.689Z,40.20
2017-09-03T19:14:02.248Z,40.30
2017-09-03T19:16:29.755Z,40.30
2017-09-03T19:18:57.271Z,40.40
2017-09-03T19:21:26.289Z,40.50
2017-09-03T19:23:53.786Z,40.70
2017-09-03T19:26:21.295Z,40.70
2017-09-03T19:28:48.792Z,41.00
2017-09-03T19:31:17.431Z,40.70
2017-09-03T19:33:45.695Z,40.70
2017-09-03T19:36:13.206Z,40.80
2017-09-03T19:38:43.639Z,41.10
2017-09-03T19:41:11.161Z,40.90
2017-09-03T19:43:38.673Z,41.20
2017-09-03T19:46:06.173Z,40.70
2017-09-03T19:48:34.511Z,41.10
2017-09-03T19:51:02.031Z,41.40
2017-09-03T19:53:29.591Z,41.80
2017-09-03T19:55:57.100Z,41.60
2017-09-03T19:58:24.657Z,41.40
2017-09-03T20:00:52.192Z,41.50
2017-09-03T20:03:19.688Z,41.60
2017-09-03T20:05:47.583Z,41.70
2017-09-03T20:08:15.600Z,41.50
2017-09-03T20:10:43.096Z,41.50
2017-09-03T20:13:10.761Z,41.60
2017-09-03T20:15:38.254Z,41.50
2017-09-03T20:18:05.749Z,41.50
2017-09-03T20:20:33.253Z,41.30
2017-09-03T20:23:00.752Z,41.20
2017-09-03T20:25:28.237Z,41.30
2017-09-03T20:27:55.727Z,41.20
2017-09-03T20:30:23.247Z,41.10
2017-09-03T20:32:50.733Z,41.60
2017-09-03T20:35:18.237Z,40.90
2017-09-03T20:37:46.456Z,41.70
2017-09-03T20:40:13.946Z,40.90
2017-09-03T20:42:41.421Z,42.20
2017-09-03T20:45:08.925Z,41.50
2017-09-03T20:47:36.419Z,42.40
2017-09-03T20:50:03.914Z,42.10
2017-09-03T20:52:31.410Z,42.20
2017-09-03T20:54:58.923Z,41.70
2017-09-03T20:57:26.414Z,42.70
2017-09-03T20:59:53.901Z,42.70
2017-09-03T21:02:21.400Z,43.10
2017-09-03T21:04:48.889Z,44.10
2017-09-03T21:07:16.404Z,43.10
2017-09-03T21:09:43.898Z,44.80
2017-09-03T21:12:11.383Z,44.80
2017-09-03T21:14:38.930Z,44.80
2017-09-03T21:17:06.410Z,44.00
2017-09-03T21:19:33.882Z,43.30
2017-09-03T21:22:01.368Z,44.50
2017-09-03T21:24:28.847Z,43.10
2017-09-03T21:26:56.374Z,44.00
2017-09-03T21:29:23.882Z,43.60
2017-09-03T21:31:51.389Z,44.30
2017-09-03T21:34:19.001Z,44.30
2017-09-03T21:36:46.490Z,44.10
2017-09-03T21:39:13.974Z,44.40
2017-09-03T21:41:41.539Z,44.50
2017-09-03T21:44:09.154Z,45.00
2017-09-03T21:46:36.683Z,43.80
2017-09-03T21:49:04.213Z,44.20
2017-09-03T21:51:31.737Z,43.80
2017-09-03T21:53:59.318Z,42.80
2017-09-03T21:56:26.841Z,43.60
2017-09-03T21:58:54.325Z,43.30
2017-09-03T22:01:21.797Z,43.50
2017-09-03T22:03:49.291Z,43.30
2017-09-03T22:06:16.925Z,43.60
2017-09-03T22:08:44.554Z,44.50
2017-09-03T22:11:12.941Z,44.00
2017-09-03T22:13:40.574Z,44.00
2017-09-03T22:16:08.090Z,44.00
2017-09-03T22:18:35.701Z,43.40
2017-09-03T22:21:03.410Z,44.70
2017-09-03T22:23:31.179Z,45.10
2017-09-03T22:25:59.114Z,45.30
2017-09-03T22:28:26.815Z,45.20
2017-09-03T22:30:54.573Z,44.50
2017-09-03T22:33:22.181Z,45.80
2017-09-03T22:35:49.809Z,44.70
2017-09-03T22:38:17.562Z,46.60
2017-09-03T22:40:45.222Z,45.50
2017-09-03T22:43:12.830Z,45.20
2017-09-03T22:45:40.565Z,46.20
2017-09-03T22:48:08.223Z,46.20
2017-09-03T22:50:35.880Z,45.40
2017-09-03T22:53:03.494Z,44.50
2017-09-03T22:55:31.222Z,45.10
2017-09-03T22:57:58.849Z,45.50
2017-09-03T23:00:26.528Z,45.70
2017-09-03T23:02:54.158Z,44.90
2017-09-03T23:05:21.961Z,45.60
2017-09-03T23:07:49.522Z,46.30
2017-09-03T23:10:17.034Z,46.40
2017-09-03T23:12:44.521Z,46.60
2017-09-03T23:15:11.995Z,46.90
2017-09-03T23:17:39.488Z,48.10
2017-09-03T23:20:06.970Z,47.20
2017-09-03T23:22:35.317Z,46.10
2017-09-03T23:25:02.794Z,46.00
2017-09-03T23:27:30.275Z,45.30
2017-09-03T23:29:57.748Z,45.70
2017-09-03T23:32:25.233Z,45.50
2017-09-03T23:34:52.706Z,45.70
2017-09-03T23:37:20.202Z,45.70
2017-09-03T23:39:47.703Z,46.10
2017-09-03T23:42:15.201Z,46.10
2017-09-03T23:44:42.686Z,47.10
2017-09-03T23:47:10.166Z,47.80
2017-09-03T23:49:37.659Z,47.70
2017-09-03T23:52:05.142Z,48.90
2017-09-03T23:54:32.626Z,48.60
2017-09-03T23:57:00.101Z,48.50
2017-09-03T23:59:27.583Z,47.40
